Bochem Mumbai — VRHJ8 — position and weather

sailwx.info

Track history (hours):
 
Tides and Currents Weather Stations Pressure Air Temp Water Temp Dewpoint Dewpoint Depression Visibility Wind Speed Wind Dir Waves Ship Positions

Bochem Mumbai

Last reported at 2017-Feb-08 10:29 UTC. Time now 2017-Feb-21 03:05 UTC.
Position N 14°35' W 017°21'.
Warning: this ship's position is 12 days out of date.

Length 171 m; draft 11.5 m.

Type: Tanker. MMSI: 477932400.

Date/timePositionNaut miles runAvg speedWind from/ knotsBaromVisibWave heightAir tempDewpointWater temp
2017-Feb-08 10:29N 14°35' W 017°21'8 0.4
2017-Feb-07 13:33N 14°43' W 017°21'0 0.0
2017-Feb-06 11:09N 14°43' W 017°21'0 0.0
2017-Feb-04 18:12N 14°43' W 017°21'0 0.0
2017-Feb-04 17:24N 14°43' W 017°21'0 0.0
2017-Feb-04 16:30N 14°43' W 017°21'0 0.0
2017-Feb-04 15:33N 14°43' W 017°21'0 0.0
2017-Feb-04 14:33N 14°43' W 017°21'0 0.0
2017-Feb-04 13:33N 14°43' W 017°21'0 0.0
2017-Feb-04 12:33N 14°43' W 017°21'0 0.0
2017-Feb-04 11:33N 14°43' W 017°21'0 0.0
2017-Feb-04 10:33N 14°42' W 017°21'1 0.8
2017-Feb-04 09:33N 14°42' W 017°22'2 2.0
2017-Feb-04 08:33N 14°40' W 017°22'2 1.8
2017-Feb-04 07:30N 14°40' W 017°20'0 0.0
2017-Feb-04 06:30N 14°40' W 017°20'0 0.0
2017-Feb-04 05:21N 14°40' W 017°20'0 0.0
2017-Feb-04 04:27N 14°40' W 017°20'0 0.0
2017-Feb-04 01:30N 14°40' W 017°20'0 0.0
2017-Feb-04 00:33N 14°40' W 017°20'0 0.0
2017-Feb-03 23:33N 14°40' W 017°20'0 0.0
2017-Feb-03 22:33N 14°40' W 017°20'0 0.0
2017-Feb-03 21:33N 14°40' W 017°20'0 0.0
2017-Feb-03 20:33N 14°40' W 017°20'1 0.8
2017-Feb-03 19:33N 14°39' W 017°19'9 8.9
2017-Feb-03 18:32N 14°31' W 017°24'1411.2
2017-Feb-03 17:15N 14°35' W 017°38'  
Track history (hours):
 
Tides and Currents Weather Stations Pressure Air Temp Water Temp Dewpoint Dewpoint Depression Visibility Wind Speed Wind Dir Waves Ship Positions

Bochem Mumbai

Last reported at 2017-Feb-08 10:29 UTC. Time now 2017-Feb-21 03:05 UTC.
Position N 14°35' W 017°21'.
Warning: this ship's position is 12 days out of date.

Length 171 m; draft 11.5 m.

Type: Tanker. MMSI: 477932400.

Date/timePositionNaut miles runAvg speedWind from/ knotsBaromVisibWave heightAir tempDewpointWater temp
2017-Feb-08 10:29N 14°35' W 017°21'8 0.4
2017-Feb-07 13:33N 14°43' W 017°21'0 0.0
2017-Feb-06 11:09N 14°43' W 017°21'0 0.0
2017-Feb-04 18:12N 14°43' W 017°21'0 0.0
2017-Feb-04 17:24N 14°43' W 017°21'0 0.0
2017-Feb-04 16:30N 14°43' W 017°21'0 0.0
2017-Feb-04 15:33N 14°43' W 017°21'0 0.0
2017-Feb-04 14:33N 14°43' W 017°21'0 0.0
2017-Feb-04 13:33N 14°43' W 017°21'0 0.0
2017-Feb-04 12:33N 14°43' W 017°21'0 0.0
2017-Feb-04 11:33N 14°43' W 017°21'0 0.0
2017-Feb-04 10:33N 14°42' W 017°21'1 0.8
2017-Feb-04 09:33N 14°42' W 017°22'2 2.0
2017-Feb-04 08:33N 14°40' W 017°22'2 1.8
2017-Feb-04 07:30N 14°40' W 017°20'0 0.0
2017-Feb-04 06:30N 14°40' W 017°20'0 0.0
2017-Feb-04 05:21N 14°40' W 017°20'0 0.0
2017-Feb-04 04:27N 14°40' W 017°20'0 0.0
2017-Feb-04 01:30N 14°40' W 017°20'0 0.0
2017-Feb-04 00:33N 14°40' W 017°20'0 0.0
2017-Feb-03 23:33N 14°40' W 017°20'0 0.0
2017-Feb-03 22:33N 14°40' W 017°20'0 0.0
2017-Feb-03 21:33N 14°40' W 017°20'0 0.0
2017-Feb-03 20:33N 14°40' W 017°20'1 0.8
2017-Feb-03 19:33N 14°39' W 017°19'9 8.9
2017-Feb-03 18:32N 14°31' W 017°24'1411.2
2017-Feb-03 17:15N 14°35' W 017°38'  

Dump ship's entire track history